createdAt,value
2022-08-17T00:01:52.051Z,97.20
2022-08-17T00:04:19.857Z,97.10
2022-08-17T00:06:48.651Z,97.70
2022-08-17T00:09:18.428Z,97.90
2022-08-17T00:12:40.798Z,98.20
2022-08-17T00:14:36.444Z,98.50
2022-08-17T00:17:06.860Z,98.80
2022-08-17T00:19:34.115Z,98.90
2022-08-17T00:22:35.265Z,99.00
2022-08-17T00:24:50.051Z,99.00
2022-08-17T00:27:17.271Z,98.60
2022-08-17T00:29:45.880Z,98.20
2022-08-17T00:33:11.652Z,97.70
2022-08-17T00:35:06.726Z,97.60
2022-08-17T00:37:33.700Z,97.50
2022-08-17T00:40:00.694Z,97.30
2022-08-17T00:42:30.939Z,97.40
2022-08-17T00:44:58.574Z,97.40
2022-08-17T00:47:25.715Z,97.20
2022-08-17T00:49:52.766Z,97.20
2022-08-17T00:52:24.879Z,97.10
2022-08-17T00:54:54.862Z,97.20
2022-08-17T00:57:32.867Z,97.00
2022-08-17T01:00:04.012Z,96.80
2022-08-17T01:02:42.800Z,96.90
2022-08-17T01:05:18.644Z,96.90
2022-08-17T01:07:48.339Z,97.00
2022-08-17T01:11:00.477Z,97.00
2022-08-17T01:13:03.644Z,96.90
2022-08-17T01:15:31.832Z,96.80
2022-08-17T01:17:58.715Z,96.90
2022-08-17T01:20:25.493Z,96.90
2022-08-17T01:22:52.615Z,97.10
2022-08-17T01:25:20.374Z,97.10
2022-08-17T01:27:47.947Z,97.10
2022-08-17T01:30:58.911Z,97.10
2022-08-17T01:33:02.542Z,97.20
2022-08-17T01:35:29.313Z,97.20
2022-08-17T01:37:56.092Z,97.30
2022-08-17T01:40:48.366Z,97.30
2022-08-17T01:43:34.569Z,97.50
2022-08-17T01:46:03.472Z,98.40
2022-08-17T01:48:33.721Z,98.40
2022-08-17T01:51:00.924Z,98.60
2022-08-17T01:53:36.204Z,98.70
2022-08-17T01:56:11.256Z,98.60
2022-08-17T01:58:39.791Z,98.30
2022-08-17T02:01:08.526Z,98.20
2022-08-17T02:03:36.691Z,98.60
2022-08-17T02:06:05.378Z,98.60
2022-08-17T02:08:39.130Z,98.50
2022-08-17T02:11:22.545Z,98.30
2022-08-17T02:13:58.320Z,98.20
2022-08-17T02:16:36.859Z,98.10
2022-08-17T02:19:12.534Z,98.00
2022-08-17T02:21:40.731Z,98.30
2022-08-17T02:24:09.079Z,98.50
2022-08-17T02:26:35.859Z,98.40
2022-08-17T02:29:04.089Z,98.60
2022-08-17T02:31:31.285Z,98.50
2022-08-17T02:34:03.993Z,98.70
2022-08-17T02:36:36.103Z,99.10
2022-08-17T02:39:06.181Z,99.40
2022-08-17T02:41:33.154Z,99.30
2022-08-17T02:44:00.688Z,99.30
2022-08-17T02:46:28.334Z,99.30
2022-08-17T02:48:55.198Z,99.20
2022-08-17T02:51:22.389Z,99.20
2022-08-17T02:53:49.218Z,99.20
2022-08-17T02:56:16.206Z,99.00
2022-08-17T02:58:43.032Z,99.00
2022-08-17T03:01:10.875Z,99.00
2022-08-17T03:03:39.009Z,99.10
2022-08-17T03:06:06.170Z,99.30
2022-08-17T03:08:33.390Z,99.00
2022-08-17T03:11:00.526Z,99.00
2022-08-17T03:13:27.621Z,98.90
2022-08-17T03:15:54.529Z,98.90
2022-08-17T03:18:24.804Z,98.90
2022-08-17T03:20:57.983Z,99.20
2022-08-17T03:23:25.808Z,99.40
2022-08-17T03:25:55.145Z,99.50
2022-08-17T03:28:23.483Z,99.50
2022-08-17T03:30:51.410Z,99.70
2022-08-17T03:33:19.211Z,99.70
2022-08-17T03:35:46.467Z,99.60
2022-08-17T03:38:15.035Z,99.50
2022-08-17T03:40:56.674Z,99.50
2022-08-17T03:43:30.906Z,99.50
2022-08-17T03:46:34.723Z,99.50
2022-08-17T03:49:25.470Z,99.50
2022-08-17T03:52:12.877Z,99.60
2022-08-17T03:54:59.026Z,99.60
2022-08-17T03:57:26.421Z,99.50
2022-08-17T03:59:54.518Z,99.60
2022-08-17T04:02:25.439Z,99.80
2022-08-17T04:04:52.678Z,99.50
2022-08-17T04:07:22.256Z,99.70
2022-08-17T04:09:49.401Z,99.90
2022-08-17T04:12:18.635Z,99.90
2022-08-17T04:14:52.854Z,99.90
2022-08-17T04:17:25.883Z,99.90
2022-08-17T04:19:53.692Z,99.90
2022-08-17T04:22:30.292Z,99.90
2022-08-17T04:25:09.375Z,99.90
2022-08-17T04:27:36.413Z,99.90
2022-08-17T04:30:07.249Z,99.90
2022-08-17T04:33:09.880Z,99.90
2022-08-17T04:35:40.243Z,99.90
2022-08-17T04:38:08.623Z,99.90
2022-08-17T04:40:54.177Z,99.90
2022-08-17T04:43:24.094Z,99.90
2022-08-17T04:45:57.370Z,99.90
2022-08-17T04:48:47.817Z,99.90
2022-08-17T04:51:24.657Z,99.90
2022-08-17T04:53:54.435Z,99.90
2022-08-17T04:56:25.116Z,99.90
2022-08-17T04:58:54.433Z,99.90
2022-08-17T05:01:24.754Z,99.90
2022-08-17T05:03:58.978Z,99.90
2022-08-17T05:06:27.836Z,99.60
2022-08-17T05:08:55.519Z,99.30
2022-08-17T05:11:23.774Z,99.20
2022-08-17T05:13:50.654Z,99.20
2022-08-17T05:16:18.452Z,99.60
2022-08-17T05:18:45.515Z,99.90
2022-08-17T05:21:12.863Z,99.90
2022-08-17T05:23:43.087Z,99.90
2022-08-17T05:26:19.827Z,99.90
2022-08-17T05:28:52.784Z,99.90
2022-08-17T05:31:21.195Z,99.90
2022-08-17T05:33:49.484Z,99.90
2022-08-17T05:36:42.079Z,99.80
2022-08-17T05:39:03.971Z,99.50
2022-08-17T05:41:30.764Z,99.30
2022-08-17T05:43:57.583Z,99.20
2022-08-17T05:46:28.740Z,99.00
2022-08-17T05:49:03.456Z,98.60
2022-08-17T05:51:55.721Z,97.80
2022-08-17T05:54:48.384Z,97.00
2022-08-17T05:57:17.862Z,96.60
2022-08-17T06:00:14.517Z,96.30
2022-08-17T06:03:09.937Z,96.20
2022-08-17T06:06:15.691Z,96.20
2022-08-17T06:09:22.815Z,96.00
2022-08-17T06:11:55.345Z,95.90
2022-08-17T06:14:40.733Z,96.10
2022-08-17T06:17:12.739Z,95.80
2022-08-17T06:19:51.593Z,95.60
2022-08-17T06:22:22.029Z,95.50
2022-08-17T06:24:54.216Z,95.40
2022-08-17T06:27:41.940Z,95.30
2022-08-17T06:30:16.920Z,95.40
2022-08-17T06:32:46.275Z,95.60
2022-08-17T06:35:17.408Z,95.50
2022-08-17T06:38:08.553Z,95.30
2022-08-17T06:41:07.492Z,95.20
2022-08-17T06:43:59.036Z,95.40
2022-08-17T06:46:35.958Z,95.40
2022-08-17T06:49:25.922Z,95.30
2022-08-17T06:51:58.219Z,95.20
2022-08-17T06:54:45.859Z,95.00
2022-08-17T06:57:15.241Z,94.90
2022-08-17T06:59:55.163Z,94.90
2022-08-17T07:02:52.573Z,94.90
2022-08-17T07:05:33.892Z,94.70
2022-08-17T07:08:30.462Z,94.50
2022-08-17T07:11:08.699Z,94.40
2022-08-17T07:13:57.465Z,94.10
2022-08-17T07:16:30.841Z,94.00
2022-08-17T07:18:59.458Z,93.80
2022-08-17T07:21:34.288Z,93.40
2022-08-17T07:24:28.104Z,93.20
2022-08-17T07:27:08.142Z,93.00
2022-08-17T07:29:41.367Z,92.90
2022-08-17T07:32:09.987Z,92.70
2022-08-17T07:35:10.723Z,92.60
2022-08-17T07:37:40.162Z,92.50
2022-08-17T07:40:21.065Z,92.30
2022-08-17T07:43:11.495Z,92.00
2022-08-17T07:46:16.360Z,91.70
2022-08-17T07:48:49.681Z,91.40
2022-08-17T07:51:27.118Z,91.10
2022-08-17T07:54:18.489Z,90.90
2022-08-17T07:57:01.488Z,90.60
2022-08-17T07:59:41.813Z,90.40
2022-08-17T08:02:21.865Z,90.20
2022-08-17T08:05:49.785Z,90.00
2022-08-17T08:08:30.180Z,89.20
2022-08-17T08:11:07.161Z,89.00
2022-08-17T08:13:35.234Z,88.70
2022-08-17T08:16:14.103Z,87.90
2022-08-17T08:18:55.741Z,87.30
2022-08-17T08:21:48.734Z,87.00
2022-08-17T08:24:41.296Z,85.80
2022-08-17T08:27:29.092Z,85.50
2022-08-17T08:29:55.914Z,85.60
2022-08-17T08:32:54.101Z,85.10
2022-08-17T08:35:44.167Z,84.30
2022-08-17T08:38:39.249Z,83.80
2022-08-17T08:41:26.376Z,83.70
2022-08-17T08:44:13.566Z,83.00
2022-08-17T08:47:23.213Z,82.30
2022-08-17T08:50:37.120Z,82.50
2022-08-17T08:53:14.426Z,82.60
2022-08-17T08:56:00.591Z,82.80
2022-08-17T08:59:01.263Z,82.20
2022-08-17T09:01:45.032Z,81.80
2022-08-17T09:05:02.594Z,81.50
2022-08-17T09:07:41.365Z,80.70
2022-08-17T09:10:25.984Z,80.20
2022-08-17T09:13:14.943Z,80.00
2022-08-17T09:15:48.161Z,79.20
2022-08-17T09:19:00.150Z,79.00
2022-08-17T09:21:18.199Z,79.20
2022-08-17T09:24:06.291Z,79.10
2022-08-17T09:27:00.584Z,79.20
2022-08-17T09:29:35.100Z,78.80
2022-08-17T09:32:14.876Z,78.60
2022-08-17T09:34:54.870Z,78.30
2022-08-17T09:37:30.954Z,77.50
2022-08-17T09:40:21.229Z,77.50
2022-08-17T09:42:53.419Z,77.50
2022-08-17T09:45:42.837Z,77.30
2022-08-17T09:48:23.430Z,77.20
2022-08-17T09:51:13.780Z,76.70
2022-08-17T09:53:41.455Z,76.30
2022-08-17T09:56:20.217Z,75.80
2022-08-17T09:59:22.253Z,76.00
2022-08-17T10:02:05.951Z,76.00
2022-08-17T10:04:40.857Z,75.60
2022-08-17T10:07:13.208Z,75.30
2022-08-17T10:10:18.014Z,74.90
2022-08-17T10:13:20.854Z,74.90
2022-08-17T10:16:03.456Z,74.10
2022-08-17T10:19:08.225Z,74.30
2022-08-17T10:22:00.679Z,73.70
2022-08-17T10:25:21.560Z,73.70
2022-08-17T10:27:52.663Z,74.00
2022-08-17T10:30:22.799Z,73.80
2022-08-17T10:32:56.934Z,73.60
2022-08-17T10:35:47.520Z,73.80
2022-08-17T10:38:37.058Z,73.50
2022-08-17T10:41:24.183Z,73.20
2022-08-17T10:44:40.456Z,72.60
2022-08-17T10:46:54.333Z,72.30
2022-08-17T10:49:21.205Z,71.80
2022-08-17T10:52:00.203Z,70.80
2022-08-17T10:54:46.947Z,70.80
2022-08-17T10:57:39.201Z,70.90
2022-08-17T11:00:08.874Z,70.30
2022-08-17T11:02:54.949Z,69.90
2022-08-17T11:05:44.233Z,69.50
2022-08-17T11:08:32.051Z,69.10
2022-08-17T11:11:09.973Z,68.20
2022-08-17T11:13:54.698Z,67.90
2022-08-17T11:16:53.705Z,68.10
2022-08-17T11:19:32.143Z,67.30
2022-08-17T11:22:31.304Z,66.80
2022-08-17T11:25:16.651Z,66.10
2022-08-17T11:27:45.713Z,66.70
2022-08-17T11:30:34.774Z,66.70
2022-08-17T11:33:34.091Z,66.90
2022-08-17T11:36:24.408Z,66.90
2022-08-17T11:39:06.236Z,66.90
2022-08-17T11:42:12.294Z,66.40
2022-08-17T11:44:39.097Z,66.10
2022-08-17T11:48:23.690Z,66.30
2022-08-17T11:51:33.719Z,66.30
2022-08-17T11:54:34.451Z,64.80
2022-08-17T11:57:26.450Z,64.20
2022-08-17T11:59:55.681Z,64.00
2022-08-17T12:02:31.459Z,63.90
2022-08-17T12:05:17.474Z,63.60
2022-08-17T12:07:52.124Z,62.30
2022-08-17T12:10:23.516Z,62.60
2022-08-17T12:12:54.048Z,63.00
2022-08-17T12:15:28.779Z,63.30
2022-08-17T12:17:57.920Z,63.20
2022-08-17T12:20:38.378Z,63.20
2022-08-17T12:23:11.114Z,63.10
2022-08-17T12:25:57.144Z,63.30
2022-08-17T12:28:33.550Z,62.90
2022-08-17T12:31:13.643Z,62.50
2022-08-17T12:33:44.422Z,62.20
2022-08-17T12:36:15.979Z,62.60
2022-08-17T12:39:14.564Z,62.20
2022-08-17T12:41:51.111Z,62.40
2022-08-17T12:44:25.190Z,62.70
2022-08-17T12:47:21.904Z,62.50
2022-08-17T12:49:52.253Z,62.40
2022-08-17T12:52:32.836Z,61.90
2022-08-17T12:55:06.970Z,61.80
2022-08-17T12:57:39.737Z,61.90
2022-08-17T13:00:30.336Z,62.00
2022-08-17T13:03:36.600Z,62.70
2022-08-17T13:06:09.527Z,63.10
2022-08-17T13:08:48.097Z,62.50
2022-08-17T13:11:16.112Z,62.60
2022-08-17T13:13:46.869Z,62.40
2022-08-17T13:16:14.453Z,61.80
2022-08-17T13:18:43.008Z,61.70
2022-08-17T13:21:26.979Z,61.80
2022-08-17T13:24:17.353Z,62.00
2022-08-17T13:26:57.320Z,62.10
2022-08-17T13:29:28.983Z,62.10
2022-08-17T13:32:13.468Z,62.10
2022-08-17T13:35:12.433Z,61.90
2022-08-17T13:37:37.482Z,61.90
2022-08-17T13:40:10.762Z,61.70
2022-08-17T13:42:51.799Z,61.00
2022-08-17T13:45:38.866Z,61.30
2022-08-17T13:48:06.474Z,61.20
2022-08-17T13:50:33.574Z,61.00
2022-08-17T13:53:00.656Z,60.80
2022-08-17T13:55:29.520Z,60.80
2022-08-17T13:58:03.898Z,60.60
2022-08-17T14:00:35.487Z,60.30
2022-08-17T14:03:04.325Z,60.40
2022-08-17T14:05:32.140Z,60.50
2022-08-17T14:08:02.516Z,60.50
2022-08-17T14:10:36.422Z,60.40
2022-08-17T14:13:03.775Z,60.50
2022-08-17T14:15:54.966Z,60.50
2022-08-17T14:18:18.993Z,60.90
2022-08-17T14:21:08.362Z,60.60
2022-08-17T14:23:36.872Z,60.40
2022-08-17T14:26:03.921Z,60.30
2022-08-17T14:28:30.821Z,60.70
2022-08-17T14:31:00.355Z,60.80
2022-08-17T14:33:28.384Z,60.70
2022-08-17T14:35:57.528Z,60.60
2022-08-17T14:38:24.674Z,60.70
2022-08-17T14:40:51.940Z,60.70
2022-08-17T14:43:18.860Z,60.80
2022-08-17T14:45:45.627Z,60.80
2022-08-17T14:48:12.815Z,60.60
2022-08-17T14:50:41.927Z,61.20
2022-08-17T14:53:15.067Z,61.90
2022-08-17T14:55:42.569Z,63.00
2022-08-17T14:58:09.493Z,61.20
2022-08-17T15:00:36.892Z,61.00
2022-08-17T15:03:04.062Z,61.10
2022-08-17T15:05:34.239Z,61.10
2022-08-17T15:08:02.436Z,61.20
2022-08-17T15:10:30.193Z,61.00
2022-08-17T15:12:57.790Z,60.90
2022-08-17T15:15:24.959Z,60.60
2022-08-17T15:17:52.218Z,60.40
2022-08-17T15:20:22.875Z,60.50
2022-08-17T15:22:50.715Z,60.30
2022-08-17T15:25:18.986Z,60.20
2022-08-17T15:27:46.292Z,60.20
2022-08-17T15:30:13.566Z,60.20
2022-08-17T15:32:51.196Z,60.10
2022-08-17T15:35:27.255Z,60.10
2022-08-17T15:38:11.269Z,60.20
2022-08-17T15:40:51.018Z,60.30
2022-08-17T15:43:27.931Z,60.40
2022-08-17T15:46:17.290Z,60.50
2022-08-17T15:48:47.125Z,60.60
2022-08-17T15:51:24.593Z,60.80
2022-08-17T15:54:17.115Z,60.60
2022-08-17T15:56:49.499Z,60.50
2022-08-17T15:59:16.335Z,60.40
2022-08-17T16:03:06.206Z,60.40
2022-08-17T16:04:31.840Z,60.10
2022-08-17T16:07:00.007Z,60.00
2022-08-17T16:09:27.217Z,60.50
2022-08-17T16:11:56.142Z,60.50
2022-08-17T16:14:32.381Z,60.70
2022-08-17T16:17:03.140Z,60.50
2022-08-17T16:19:29.991Z,60.40
2022-08-17T16:21:56.951Z,60.80
2022-08-17T16:24:23.721Z,60.80
2022-08-17T16:26:50.688Z,60.80
2022-08-17T16:29:17.844Z,61.00
2022-08-17T16:31:44.608Z,61.20
2022-08-17T16:34:18.101Z,61.30
2022-08-17T16:36:51.752Z,61.20
2022-08-17T16:39:29.334Z,61.40
2022-08-17T16:41:57.455Z,61.60
2022-08-17T16:44:25.760Z,61.30
2022-08-17T16:46:52.641Z,61.40
2022-08-17T16:49:35.658Z,61.90
2022-08-17T16:52:06.183Z,62.00
2022-08-17T16:54:35.458Z,62.60
2022-08-17T16:57:05.057Z,62.70
2022-08-17T16:59:40.962Z,63.40
2022-08-17T17:02:12.560Z,63.80
2022-08-17T17:04:49.371Z,63.50
2022-08-17T17:07:43.720Z,63.10
2022-08-17T17:10:15.036Z,63.00
2022-08-17T17:13:02.090Z,63.00
2022-08-17T17:15:39.572Z,63.20
2022-08-17T17:18:11.117Z,63.30
2022-08-17T17:20:49.783Z,63.30
2022-08-17T17:23:36.241Z,63.40
2022-08-17T17:26:13.409Z,63.50
2022-08-17T17:29:04.340Z,63.20
2022-08-17T17:31:45.276Z,63.00
2022-08-17T17:34:16.571Z,63.10
2022-08-17T17:36:51.920Z,63.10
2022-08-17T17:39:31.884Z,63.20
2022-08-17T17:42:03.578Z,63.20
2022-08-17T17:44:56.584Z,63.30
2022-08-17T17:47:23.630Z,63.40
2022-08-17T17:49:50.606Z,63.40
2022-08-17T17:52:38.204Z,63.40
2022-08-17T17:55:18.450Z,63.40
2022-08-17T17:58:11.581Z,63.50
2022-08-17T18:01:16.557Z,63.50
2022-08-17T18:03:59.030Z,63.50
2022-08-17T18:06:45.445Z,63.60
2022-08-17T18:09:35.685Z,63.90
2022-08-17T18:12:31.423Z,64.10
2022-08-17T18:15:03.777Z,64.40
2022-08-17T18:17:31.119Z,64.80
2022-08-17T18:19:58.077Z,65.20
2022-08-17T18:22:26.289Z,65.60
2022-08-17T18:24:58.248Z,66.00
2022-08-17T18:27:40.826Z,66.30
2022-08-17T18:30:13.813Z,66.50
2022-08-17T18:32:43.560Z,66.60
2022-08-17T18:35:10.353Z,66.50
2022-08-17T18:37:47.717Z,66.30
2022-08-17T18:40:17.581Z,66.30
2022-08-17T18:43:00.194Z,66.40
2022-08-17T18:45:34.779Z,66.70
2022-08-17T18:48:02.865Z,67.30
2022-08-17T18:50:39.563Z,67.40
2022-08-17T18:53:34.888Z,67.20
2022-08-17T18:56:20.315Z,67.00
2022-08-17T18:59:21.652Z,67.20
2022-08-17T19:02:11.610Z,67.40
2022-08-17T19:05:01.663Z,67.70
2022-08-17T19:07:39.283Z,68.00
2022-08-17T19:10:14.991Z,68.20
2022-08-17T19:13:12.697Z,67.80
2022-08-17T19:16:05.303Z,68.00
2022-08-17T19:18:42.801Z,68.40
2022-08-17T19:21:29.698Z,68.60
2022-08-17T19:24:10.797Z,68.90
2022-08-17T19:26:54.826Z,68.90
2022-08-17T19:29:50.736Z,69.10
2022-08-17T19:32:24.439Z,69.20
2022-08-17T19:34:52.232Z,69.20
2022-08-17T19:37:36.855Z,69.50
2022-08-17T19:40:51.098Z,69.40
2022-08-17T19:43:35.461Z,69.20
2022-08-17T19:46:11.985Z,69.00
2022-08-17T19:49:16.320Z,68.90
2022-08-17T19:52:26.137Z,69.00
2022-08-17T19:54:59.697Z,68.90
2022-08-17T19:58:17.936Z,69.00
2022-08-17T20:00:50.933Z,69.00
2022-08-17T20:03:35.421Z,69.00
2022-08-17T20:06:13.088Z,69.00
2022-08-17T20:08:59.532Z,69.10
2022-08-17T20:11:45.467Z,69.10
2022-08-17T20:14:15.669Z,69.20
2022-08-17T20:16:42.558Z,69.30
2022-08-17T20:19:44.662Z,69.50
2022-08-17T20:22:20.680Z,69.60
2022-08-17T20:25:31.883Z,69.80
2022-08-17T20:28:35.241Z,69.90
2022-08-17T20:31:03.020Z,70.10
2022-08-17T20:33:33.746Z,70.20
2022-08-17T20:36:20.557Z,70.30
2022-08-17T20:38:58.829Z,70.40
2022-08-17T20:41:28.848Z,70.40
2022-08-17T20:43:59.027Z,70.40
2022-08-17T20:46:34.843Z,70.60
2022-08-17T20:49:49.834Z,70.70
2022-08-17T20:52:48.480Z,70.80
2022-08-17T20:55:33.826Z,71.00
2022-08-17T20:58:15.830Z,71.10
2022-08-17T21:00:56.437Z,71.40
2022-08-17T21:03:23.718Z,71.50
2022-08-17T21:06:00.422Z,71.90
2022-08-17T21:08:43.735Z,72.00
2022-08-17T21:11:57.001Z,72.30
2022-08-17T21:14:33.637Z,72.70
2022-08-17T21:17:36.464Z,73.10
2022-08-17T21:20:23.931Z,73.40
2022-08-17T21:23:09.271Z,73.70
2022-08-17T21:25:57.748Z,74.00
2022-08-17T21:29:00.359Z,74.70
2022-08-17T21:31:28.354Z,74.90
2022-08-17T21:34:24.483Z,75.30
2022-08-17T21:36:51.534Z,75.40
2022-08-17T21:39:33.045Z,75.80
2022-08-17T21:42:00.753Z,76.10
2022-08-17T21:44:36.845Z,76.30
2022-08-17T21:47:25.925Z,76.70
2022-08-17T21:49:54.955Z,76.80
2022-08-17T21:52:26.873Z,76.90
2022-08-17T21:55:02.402Z,77.30
2022-08-17T21:57:30.058Z,77.40
2022-08-17T22:00:00.750Z,77.70
2022-08-17T22:02:32.341Z,78.00
2022-08-17T22:05:08.459Z,78.20
2022-08-17T22:07:35.249Z,78.40
2022-08-17T22:10:02.385Z,78.60
2022-08-17T22:12:29.848Z,78.80
2022-08-17T22:15:04.107Z,78.90
2022-08-17T22:17:45.159Z,79.10
2022-08-17T22:20:19.088Z,79.30
2022-08-17T22:23:04.277Z,79.40
2022-08-17T22:25:35.915Z,79.60
2022-08-17T22:28:11.463Z,79.70
2022-08-17T22:30:39.532Z,79.90
2022-08-17T22:33:25.167Z,80.10
2022-08-17T22:36:12.645Z,80.30
2022-08-17T22:38:41.353Z,80.30
2022-08-17T22:41:31.758Z,80.60
2022-08-17T22:44:31.629Z,80.80
2022-08-17T22:47:00.664Z,80.90
2022-08-17T22:49:34.141Z,81.10
2022-08-17T22:52:32.365Z,81.30
2022-08-17T22:55:33.307Z,81.50
2022-08-17T22:58:19.970Z,81.70
2022-08-17T23:00:49.030Z,81.90
2022-08-17T23:03:25.559Z,82.10
2022-08-17T23:06:06.221Z,82.20
2022-08-17T23:08:35.703Z,82.50
2022-08-17T23:11:02.877Z,82.70
2022-08-17T23:13:31.949Z,82.80
2022-08-17T23:15:58.792Z,82.90
2022-08-17T23:18:27.333Z,83.10
2022-08-17T23:20:54.445Z,83.20
2022-08-17T23:23:23.890Z,83.30
2022-08-17T23:25:50.943Z,83.50
2022-08-17T23:28:18.088Z,83.70
2022-08-17T23:30:48.448Z,83.80
2022-08-17T23:33:30.411Z,84.00
2022-08-17T23:35:58.838Z,84.20
2022-08-17T23:38:29.275Z,84.20
2022-08-17T23:40:59.984Z,84.40
2022-08-17T23:43:28.333Z,84.50
2022-08-17T23:45:57.913Z,84.60
2022-08-17T23:48:32.573Z,84.80
2022-08-17T23:51:05.824Z,84.90
2022-08-17T23:53:34.880Z,85.00
2022-08-17T23:56:09.857Z,85.20
2022-08-17T23:58:41.999Z,85.30
